createdAt,value
2023-02-12T00:00:10.306Z,7.63
2023-02-12T00:02:45.453Z,7.76
2023-02-12T00:05:16.545Z,7.73
2023-02-12T00:07:46.149Z,7.77
2023-02-12T00:10:15.920Z,7.69
2023-02-12T00:12:48.105Z,7.72
2023-02-12T00:15:17.728Z,7.83
2023-02-12T00:17:47.279Z,7.69
2023-02-12T00:20:16.872Z,7.71
2023-02-12T00:22:46.459Z,7.76
2023-02-12T00:25:17.176Z,7.60
2023-02-12T00:27:49.299Z,7.63
2023-02-12T00:30:19.444Z,7.75
2023-02-12T00:32:49.052Z,7.64
2023-02-12T00:35:18.788Z,7.66
2023-02-12T00:37:48.346Z,7.62
2023-02-12T00:40:17.844Z,7.63
2023-02-12T00:42:50.013Z,7.63
2023-02-12T00:45:20.365Z,7.62
2023-02-12T00:47:49.994Z,7.77
2023-02-12T00:50:19.843Z,7.73
2023-02-12T00:52:49.428Z,7.70
2023-02-12T00:55:19.582Z,7.68
2023-02-12T00:57:51.873Z,7.73
2023-02-12T01:00:21.781Z,7.62
2023-02-12T01:02:51.337Z,7.74
2023-02-12T01:05:21.970Z,7.64
2023-02-12T01:07:52.273Z,7.74
2023-02-12T01:10:23.384Z,7.76
2023-02-12T01:12:55.987Z,7.69
2023-02-12T01:15:26.011Z,7.71
2023-02-12T01:17:55.754Z,7.66
2023-02-12T01:20:28.009Z,7.70
2023-02-12T01:22:57.601Z,7.71
2023-02-12T01:25:27.126Z,7.82
2023-02-12T01:28:00.939Z,7.59
2023-02-12T01:30:30.531Z,7.86
2023-02-12T01:33:00.697Z,7.78
2023-02-12T01:35:30.566Z,7.73
2023-02-12T01:38:00.151Z,7.58
2023-02-12T01:40:30.027Z,7.69
2023-02-12T01:43:06.077Z,7.55
2023-02-12T01:45:53.743Z,7.57
2023-02-12T01:48:28.204Z,7.66
2023-02-12T01:50:59.581Z,7.63
2023-02-12T01:53:34.737Z,7.50
2023-02-12T01:56:05.868Z,7.52
2023-02-12T01:58:41.913Z,7.47
2023-02-12T02:01:18.178Z,7.55
2023-02-12T02:03:49.789Z,7.47
2023-02-12T02:06:23.515Z,7.49
2023-02-12T02:08:53.841Z,7.47
2023-02-12T02:11:36.132Z,7.49
2023-02-12T02:14:20.961Z,7.51
2023-02-12T02:17:00.637Z,7.51
2023-02-12T02:19:48.285Z,7.48
2023-02-12T02:22:29.903Z,7.61
2023-02-12T02:25:30.758Z,7.63
2023-02-12T02:28:09.325Z,7.44
2023-02-12T02:30:46.809Z,7.41
2023-02-12T02:33:27.357Z,7.43
2023-02-12T02:36:07.012Z,7.60
2023-02-12T02:38:43.442Z,7.48
2023-02-12T02:41:20.585Z,7.57
2023-02-12T02:43:52.705Z,7.52
2023-02-12T02:46:31.665Z,7.45
2023-02-12T02:49:04.711Z,7.56
2023-02-12T02:51:37.834Z,7.69
2023-02-12T02:54:14.326Z,7.52
2023-02-12T02:56:47.549Z,7.57
2023-02-12T02:59:21.904Z,7.52
2023-02-12T03:02:00.190Z,7.56
2023-02-12T03:04:34.600Z,7.69
2023-02-12T03:07:09.831Z,7.70
2023-02-12T03:09:42.814Z,7.66
2023-02-12T03:12:17.134Z,7.49
2023-02-12T03:14:51.843Z,7.57
2023-02-12T03:17:27.070Z,7.58
2023-02-12T03:20:01.662Z,7.63
2023-02-12T03:22:34.780Z,7.46
2023-02-12T03:25:12.254Z,7.50
2023-02-12T03:27:45.396Z,7.47
2023-02-12T03:30:16.399Z,7.50
2023-02-12T03:32:57.124Z,7.42
2023-02-12T03:35:31.510Z,7.51
2023-02-12T03:38:05.716Z,7.39
2023-02-12T03:40:40.259Z,7.48
2023-02-12T03:43:17.464Z,7.72
2023-02-12T03:45:53.606Z,7.74
2023-02-12T03:48:30.653Z,7.59
2023-02-12T03:51:06.368Z,7.67
2023-02-12T03:53:35.901Z,7.54
2023-02-12T03:56:11.157Z,7.61
2023-02-12T03:58:44.081Z,7.73
2023-02-12T04:01:14.779Z,7.59
2023-02-12T04:03:47.252Z,7.53
2023-02-12T04:06:23.740Z,7.51
2023-02-12T04:08:53.341Z,7.54
2023-02-12T04:11:31.882Z,7.51
2023-02-12T04:14:15.910Z,7.61
2023-02-12T04:16:51.864Z,7.78
2023-02-12T04:19:36.249Z,7.77
2023-02-12T04:22:21.113Z,7.56
2023-02-12T04:25:03.122Z,7.54
2023-02-12T04:27:40.105Z,7.80
2023-02-12T04:30:16.516Z,7.76
2023-02-12T04:32:49.453Z,7.62
2023-02-12T04:35:26.501Z,7.80
2023-02-12T04:38:02.013Z,7.77
2023-02-12T04:40:31.644Z,7.56
2023-02-12T04:43:01.206Z,7.54
2023-02-12T04:45:33.196Z,7.62
2023-02-12T04:48:03.198Z,7.51
2023-02-12T04:50:41.819Z,7.68
2023-02-12T04:53:12.793Z,7.41
2023-02-12T04:55:42.472Z,7.51
2023-02-12T04:58:12.105Z,7.47
2023-02-12T05:00:41.924Z,7.28
2023-02-12T05:03:11.496Z,7.35
2023-02-12T05:05:43.632Z,7.18
2023-02-12T05:08:13.233Z,7.20
2023-02-12T05:10:42.820Z,7.25
2023-02-12T05:13:13.470Z,7.29
2023-02-12T05:15:43.084Z,7.20
2023-02-12T05:18:12.721Z,7.24
2023-02-12T05:20:44.931Z,7.37
2023-02-12T05:23:14.545Z,7.30
2023-02-12T05:25:44.219Z,7.34
2023-02-12T05:28:13.874Z,7.23
2023-02-12T05:30:43.576Z,7.23
2023-02-12T05:33:13.178Z,7.20
2023-02-12T05:35:45.379Z,7.26
2023-02-12T05:38:14.986Z,7.08
2023-02-12T05:40:44.541Z,7.13
2023-02-12T05:43:14.211Z,7.24
2023-02-12T05:45:45.123Z,7.41
2023-02-12T05:48:14.730Z,7.34
2023-02-12T05:50:46.883Z,7.39
2023-02-12T05:53:16.415Z,7.19
2023-02-12T05:55:45.927Z,7.18
2023-02-12T05:58:16.178Z,7.19
2023-02-12T06:00:46.847Z,7.16
2023-02-12T06:03:16.457Z,7.21
2023-02-12T06:05:53.436Z,7.29
2023-02-12T06:08:23.258Z,7.20
2023-02-12T06:10:52.811Z,7.32
2023-02-12T06:13:22.356Z,7.23
2023-02-12T06:15:51.887Z,7.25
2023-02-12T06:18:21.489Z,7.12
2023-02-12T06:20:54.318Z,7.30
2023-02-12T06:23:24.211Z,7.35
2023-02-12T06:26:00.007Z,7.31
2023-02-12T06:28:29.572Z,7.41
2023-02-12T06:30:59.213Z,7.29
2023-02-12T06:33:28.945Z,7.28
2023-02-12T06:36:01.058Z,7.29
2023-02-12T06:38:30.607Z,7.26
2023-02-12T06:41:00.126Z,7.24
2023-02-12T06:43:30.304Z,7.39
2023-02-12T06:46:03.735Z,7.30
2023-02-12T06:48:33.604Z,7.43
2023-02-12T06:51:11.545Z,7.23
2023-02-12T06:53:41.589Z,7.33
2023-02-12T06:56:13.633Z,7.38
2023-02-12T06:58:45.534Z,7.36
2023-02-12T07:01:18.067Z,7.29
2023-02-12T07:03:51.496Z,7.30
2023-02-12T07:06:24.947Z,7.47
2023-02-12T07:08:54.840Z,7.45
2023-02-12T07:11:26.339Z,7.29
2023-02-12T07:13:55.941Z,7.34
2023-02-12T07:16:26.349Z,7.59
2023-02-12T07:18:55.928Z,7.62
2023-02-12T07:21:28.185Z,7.45
2023-02-12T07:23:57.732Z,7.60
2023-02-12T07:26:27.282Z,7.70
2023-02-12T07:28:56.822Z,7.69
2023-02-12T07:31:27.189Z,7.91
2023-02-12T07:33:58.356Z,7.91
2023-02-12T07:36:32.899Z,7.99
2023-02-12T07:39:02.734Z,8.09
2023-02-12T07:41:34.337Z,7.85
2023-02-12T07:44:07.525Z,7.91
2023-02-12T07:46:39.708Z,8.01
2023-02-12T07:49:10.899Z,7.97
2023-02-12T07:51:43.447Z,8.02
2023-02-12T07:54:13.797Z,8.13
2023-02-12T07:56:47.088Z,8.02
2023-02-12T07:59:18.824Z,8.04
2023-02-12T08:01:49.892Z,7.77
2023-02-12T08:04:21.728Z,7.51
2023-02-12T08:06:56.705Z,7.60
2023-02-12T08:09:28.550Z,7.60
2023-02-12T08:11:59.528Z,7.61
2023-02-12T08:14:29.865Z,7.83
2023-02-12T08:16:59.456Z,7.82
2023-02-12T08:19:29.072Z,7.95
2023-02-12T08:22:03.124Z,7.55
2023-02-12T08:24:32.981Z,7.84
2023-02-12T08:27:02.628Z,8.05
2023-02-12T08:29:32.923Z,7.96
2023-02-12T08:32:06.451Z,8.23
2023-02-12T08:34:37.972Z,8.04
2023-02-12T08:37:10.293Z,8.25
2023-02-12T08:39:39.826Z,8.07
2023-02-12T08:42:09.485Z,8.29
2023-02-12T08:44:40.825Z,8.28
2023-02-12T08:47:10.420Z,8.53
2023-02-12T08:49:40.444Z,8.40
2023-02-12T08:52:12.600Z,7.86
2023-02-12T08:54:42.138Z,7.89
2023-02-12T08:57:11.785Z,7.76
2023-02-12T08:59:41.328Z,8.28
2023-02-12T09:02:12.508Z,8.37
2023-02-12T09:04:42.140Z,8.36
2023-02-12T09:07:14.303Z,8.25
2023-02-12T09:09:43.968Z,8.31
2023-02-12T09:12:13.600Z,8.43
2023-02-12T09:14:43.482Z,8.30
2023-02-12T09:17:13.076Z,8.30
2023-02-12T09:19:42.941Z,8.32
2023-02-12T09:22:15.051Z,8.66
2023-02-12T09:24:44.659Z,8.51
2023-02-12T09:27:14.228Z,8.63
2023-02-12T09:29:43.815Z,9.01
2023-02-12T09:32:13.532Z,8.80
2023-02-12T09:34:43.198Z,9.08
2023-02-12T09:37:15.373Z,9.11
2023-02-12T09:39:45.234Z,8.54
2023-02-12T09:42:39.251Z,9.34
2023-02-12T09:45:18.860Z,9.54
2023-02-12T09:47:56.988Z,9.32
2023-02-12T09:50:48.584Z,9.11
2023-02-12T09:53:23.789Z,8.86
2023-02-12T09:55:53.972Z,8.91
2023-02-12T09:58:31.561Z,9.01
2023-02-12T10:01:01.586Z,9.14
2023-02-12T10:03:33.588Z,9.26
2023-02-12T10:06:07.616Z,9.36
2023-02-12T10:09:01.469Z,9.66
2023-02-12T10:11:53.306Z,9.98
2023-02-12T10:14:53.331Z,9.68
2023-02-12T10:17:31.415Z,9.66
2023-02-12T10:20:25.424Z,9.70
2023-02-12T10:23:11.015Z,10.11
2023-02-12T10:25:53.101Z,9.49
2023-02-12T10:28:28.699Z,9.58
2023-02-12T10:31:00.421Z,9.50
2023-02-12T10:33:32.334Z,9.77
2023-02-12T10:36:07.597Z,9.86
2023-02-12T10:38:42.427Z,9.82
2023-02-12T10:41:18.501Z,10.08
2023-02-12T10:43:48.212Z,9.77
2023-02-12T10:46:19.058Z,9.98
2023-02-12T10:48:54.030Z,9.26
2023-02-12T10:51:47.241Z,9.90
2023-02-12T10:54:35.654Z,9.76
2023-02-12T10:57:16.007Z,9.95
2023-02-12T10:59:47.143Z,9.93
2023-02-12T11:02:27.222Z,9.69
2023-02-12T11:04:59.228Z,9.85
2023-02-12T11:07:30.317Z,9.66
2023-02-12T11:10:00.336Z,10.26
2023-02-12T11:12:36.761Z,9.80
2023-02-12T11:15:16.003Z,10.36
2023-02-12T11:17:47.846Z,10.08
2023-02-12T11:20:26.856Z,10.14
2023-02-12T11:22:58.919Z,10.09
2023-02-12T11:25:31.339Z,10.49
2023-02-12T11:28:17.538Z,10.60
2023-02-12T11:30:54.549Z,10.81
2023-02-12T11:33:34.680Z,10.70
2023-02-12T11:36:08.337Z,10.15
2023-02-12T11:38:41.916Z,10.57
2023-02-12T11:41:27.261Z,10.96
2023-02-12T11:43:59.653Z,10.95
2023-02-12T11:46:30.749Z,11.07
2023-02-12T11:49:01.969Z,11.47
2023-02-12T11:51:33.831Z,11.01
2023-02-12T11:54:07.207Z,10.97
2023-02-12T11:56:45.429Z,10.85
2023-02-12T11:59:30.230Z,10.75
2023-02-12T12:02:04.813Z,10.56
2023-02-12T12:04:36.983Z,10.56
2023-02-12T12:07:15.317Z,10.98
2023-02-12T12:09:51.029Z,11.06
2023-02-12T12:12:25.709Z,10.49
2023-02-12T12:15:15.641Z,10.39
2023-02-12T12:18:02.569Z,10.65
2023-02-12T12:20:38.185Z,10.25
2023-02-12T12:23:12.591Z,9.90
2023-02-12T12:25:48.827Z,10.41
2023-02-12T12:28:34.145Z,10.78
2023-02-12T12:31:12.933Z,10.16
2023-02-12T12:33:46.878Z,10.65
2023-02-12T12:36:40.095Z,10.36
2023-02-12T12:39:21.429Z,9.73
2023-02-12T12:42:06.334Z,9.86
2023-02-12T12:44:48.846Z,10.13
2023-02-12T12:47:28.700Z,10.14
2023-02-12T12:50:10.492Z,10.48
2023-02-12T12:52:56.306Z,10.44
2023-02-12T12:55:48.726Z,10.60
2023-02-12T12:58:26.919Z,10.45
2023-02-12T13:01:12.989Z,10.48
2023-02-12T13:17:20.356Z,10.51
2023-02-12T13:19:59.664Z,10.56
2023-02-12T13:22:35.849Z,10.82
2023-02-12T13:25:19.529Z,10.23
2023-02-12T13:27:50.694Z,10.49
2023-02-12T13:30:24.903Z,10.31
2023-02-12T13:33:07.708Z,10.22
2023-02-12T13:35:40.612Z,10.38
2023-02-12T13:38:11.964Z,10.77
2023-02-12T13:40:43.446Z,10.55
2023-02-12T13:43:26.879Z,10.41
2023-02-12T13:46:06.539Z,10.50
2023-02-12T13:48:54.750Z,10.46
2023-02-12T13:51:33.178Z,10.87
2023-02-12T13:54:16.130Z,10.78
2023-02-12T13:56:48.066Z,10.68
2023-02-12T13:59:43.119Z,10.99
2023-02-12T14:02:31.303Z,10.92
2023-02-12T14:05:05.321Z,10.94
2023-02-12T14:07:45.810Z,10.96
2023-02-12T14:10:24.434Z,10.87
2023-02-12T14:12:56.309Z,10.66
2023-02-12T14:15:46.253Z,10.68
2023-02-12T14:18:32.791Z,10.80
2023-02-12T14:21:47.173Z,10.22
2023-02-12T14:24:54.064Z,10.60
2023-02-12T14:27:31.857Z,10.52
2023-02-12T14:30:31.322Z,10.95
2023-02-12T14:33:29.361Z,10.97
2023-02-12T14:36:18.790Z,10.61
2023-02-12T14:39:04.813Z,10.85
2023-02-12T14:41:41.975Z,10.79
2023-02-12T14:44:47.765Z,10.75
2023-02-12T14:47:54.363Z,11.04
2023-02-12T14:50:33.092Z,10.82
2023-02-12T14:53:09.118Z,11.20
2023-02-12T14:55:38.945Z,11.40
2023-02-12T14:58:21.476Z,10.90
2023-02-12T15:00:55.918Z,10.92
2023-02-12T15:03:30.734Z,10.57
2023-02-12T15:06:16.044Z,10.83
2023-02-12T15:08:56.429Z,10.00
2023-02-12T15:11:36.650Z,10.07
2023-02-12T15:14:14.849Z,10.41
2023-02-12T15:16:52.307Z,10.57
2023-02-12T15:19:37.732Z,10.23
2023-02-12T15:22:20.346Z,10.15
2023-02-12T15:24:50.147Z,10.00
2023-02-12T15:27:21.889Z,10.08
2023-02-12T15:29:56.063Z,9.87
2023-02-12T15:32:29.787Z,9.91
2023-02-12T15:34:59.615Z,9.99
2023-02-12T15:37:32.082Z,9.46
2023-02-12T15:40:05.718Z,9.54
2023-02-12T15:42:37.906Z,9.74
2023-02-12T15:45:26.124Z,9.70
2023-02-12T15:48:15.489Z,9.39
2023-02-12T15:50:53.775Z,9.55
2023-02-12T15:53:25.898Z,9.30
2023-02-12T15:55:56.114Z,9.55
2023-02-12T15:58:28.281Z,9.70
2023-02-12T16:01:04.579Z,9.44
2023-02-12T16:03:36.314Z,9.48
2023-02-12T16:06:11.303Z,9.56
2023-02-12T16:08:42.281Z,9.77
2023-02-12T16:11:16.391Z,9.93
2023-02-12T16:13:49.062Z,9.75
2023-02-12T16:16:25.649Z,9.81
2023-02-12T16:19:19.624Z,9.96
2023-02-12T16:21:52.662Z,9.51
2023-02-12T16:24:28.119Z,9.70
2023-02-12T16:26:59.071Z,9.67
2023-02-12T16:29:28.701Z,9.51
2023-02-12T16:32:03.385Z,9.48
2023-02-12T16:34:36.333Z,9.50
2023-02-12T16:37:07.854Z,9.57
2023-02-12T16:40:13.124Z,9.28
2023-02-12T16:43:03.371Z,9.61
2023-02-12T16:45:42.034Z,9.90
2023-02-12T16:48:26.093Z,9.69
2023-02-12T16:50:58.017Z,9.86
2023-02-12T16:53:43.601Z,9.86
2023-02-12T16:56:18.474Z,9.80
2023-02-12T16:58:50.075Z,9.32
2023-02-12T17:01:25.759Z,9.52
2023-02-12T17:03:58.756Z,9.19
2023-02-12T17:06:30.401Z,8.76
2023-02-12T17:09:00.801Z,8.93
2023-02-12T17:11:31.358Z,9.03
2023-02-12T17:14:01.052Z,8.89
2023-02-12T17:16:32.053Z,8.86
2023-02-12T17:19:04.482Z,8.74
2023-02-12T17:21:38.465Z,8.80
2023-02-12T17:24:10.171Z,8.75
2023-02-12T17:26:39.736Z,8.68
2023-02-12T17:29:09.272Z,8.81
2023-02-12T17:31:39.311Z,8.63
2023-02-12T17:34:11.496Z,8.55
2023-02-12T17:36:42.096Z,8.73
2023-02-12T17:39:14.692Z,8.70
2023-02-12T17:41:44.792Z,8.79
2023-02-12T17:44:15.683Z,8.67
2023-02-12T17:46:46.035Z,8.78
2023-02-12T17:49:18.466Z,8.55
2023-02-12T17:51:48.028Z,8.57
2023-02-12T17:54:18.779Z,8.64
2023-02-12T17:56:48.366Z,8.62
2023-02-12T17:59:17.941Z,8.50
2023-02-12T18:01:47.912Z,8.52
2023-02-12T18:04:20.095Z,8.46
2023-02-12T18:06:50.048Z,8.16
2023-02-12T18:09:19.600Z,8.27
2023-02-12T18:11:49.191Z,8.12
2023-02-12T18:14:18.738Z,8.04
2023-02-12T18:16:48.434Z,8.17
2023-02-12T18:19:20.572Z,8.25
2023-02-12T18:21:50.155Z,8.28
2023-02-12T18:24:19.728Z,8.35
2023-02-12T18:26:49.334Z,8.45
2023-02-12T18:29:18.909Z,8.35
2023-02-12T18:31:48.597Z,8.41
2023-02-12T18:34:20.791Z,8.24
2023-02-12T18:36:50.349Z,8.20
2023-02-12T18:39:19.946Z,8.21
2023-02-12T18:41:49.579Z,8.25
2023-02-12T18:44:19.133Z,8.14
2023-02-12T18:46:48.686Z,8.07
2023-02-12T18:49:20.924Z,8.03
2023-02-12T18:51:50.511Z,8.02
2023-02-12T18:54:20.104Z,8.09
2023-02-12T18:56:53.718Z,8.07
2023-02-12T18:59:27.122Z,8.02
2023-02-12T19:01:57.282Z,8.12
2023-02-12T19:04:30.283Z,7.92
2023-02-12T19:07:00.948Z,8.04
2023-02-12T19:09:30.510Z,7.88
2023-02-12T19:12:01.420Z,7.96
2023-02-12T19:14:31.188Z,7.93
2023-02-12T19:17:00.814Z,8.02
2023-02-12T19:19:33.009Z,8.28
2023-02-12T19:22:02.642Z,8.44
2023-02-12T19:24:45.565Z,8.25
2023-02-12T19:27:16.069Z,8.14
2023-02-12T19:29:45.988Z,8.05
2023-02-12T19:32:15.545Z,8.12
2023-02-12T19:34:48.105Z,8.22
2023-02-12T19:37:17.753Z,8.48
2023-02-12T19:39:47.284Z,8.34
2023-02-12T19:42:17.731Z,8.26
2023-02-12T19:44:47.463Z,8.41
2023-02-12T19:47:17.900Z,8.45
2023-02-12T19:49:50.171Z,8.33
2023-02-12T19:52:19.731Z,8.50
2023-02-12T19:54:49.291Z,8.58
2023-02-12T19:57:18.830Z,8.61
2023-02-12T19:59:49.124Z,8.31
2023-02-12T20:02:18.807Z,8.54
2023-02-12T20:04:51.093Z,8.66
2023-02-12T20:07:20.663Z,8.63
2023-02-12T20:09:53.295Z,8.82
2023-02-12T20:12:22.920Z,9.00
2023-02-12T20:14:52.500Z,9.07
2023-02-12T20:17:22.176Z,8.47
2023-02-12T20:19:54.317Z,8.36
2023-02-12T20:22:24.709Z,8.74
2023-02-12T20:24:54.281Z,8.72
2023-02-12T20:27:23.813Z,8.75
2023-02-12T20:29:53.384Z,8.67
2023-02-12T20:32:22.929Z,8.73
2023-02-12T20:34:56.002Z,8.47
2023-02-12T20:37:25.579Z,8.45
2023-02-12T20:39:55.143Z,8.57
2023-02-12T20:42:24.739Z,8.09
2023-02-12T20:44:54.306Z,8.26
2023-02-12T20:47:28.717Z,8.19
2023-02-12T20:50:01.365Z,8.00
2023-02-12T20:52:32.094Z,8.24
2023-02-12T20:55:01.639Z,8.32
2023-02-12T20:57:31.569Z,8.23
2023-02-12T21:00:01.120Z,8.13
2023-02-12T21:02:31.351Z,7.88
2023-02-12T21:05:03.504Z,7.85
2023-02-12T21:07:33.115Z,8.03
2023-02-12T21:10:02.679Z,7.93
2023-02-12T21:12:32.324Z,7.89
2023-02-12T21:15:01.909Z,8.38
2023-02-12T21:17:31.501Z,8.53
2023-02-12T21:20:03.688Z,8.30
2023-02-12T21:22:33.286Z,8.25
2023-02-12T21:25:02.902Z,8.48
2023-02-12T21:27:32.999Z,8.45
2023-02-12T21:30:02.514Z,8.68
2023-02-12T21:32:32.163Z,8.95
2023-02-12T21:35:04.394Z,8.33
2023-02-12T21:37:33.950Z,8.54
2023-02-12T21:40:03.532Z,8.53
2023-02-12T21:42:33.062Z,8.25
2023-02-12T21:45:02.603Z,8.06
2023-02-12T21:47:32.696Z,8.39
2023-02-12T21:50:04.905Z,8.08
2023-02-12T21:52:34.457Z,8.21
2023-02-12T21:55:03.982Z,8.19
2023-02-12T21:57:33.552Z,8.42
2023-02-12T22:00:03.142Z,8.38
2023-02-12T22:02:42.331Z,8.59
2023-02-12T22:05:14.569Z,8.19
2023-02-12T22:07:44.225Z,8.34
2023-02-12T22:10:14.334Z,8.36
2023-02-12T22:12:43.870Z,8.39
2023-02-12T22:15:13.451Z,8.62
2023-02-12T22:17:43.585Z,8.71
2023-02-12T22:20:16.514Z,8.78
2023-02-12T22:22:46.124Z,8.25
2023-02-12T22:25:15.807Z,8.34
2023-02-12T22:27:45.348Z,8.04
2023-02-12T22:30:16.723Z,8.56
2023-02-12T22:32:46.630Z,8.13
2023-02-12T22:35:20.062Z,8.28
2023-02-12T22:37:49.601Z,8.39
2023-02-12T22:40:19.889Z,8.74
2023-02-12T22:42:49.448Z,8.73
2023-02-12T22:45:19.061Z,8.79
2023-02-12T22:47:48.610Z,8.61
2023-02-12T22:50:20.927Z,8.57
2023-02-12T22:52:50.618Z,8.61
2023-02-12T22:55:20.211Z,8.42
2023-02-12T22:57:49.779Z,8.40
2023-02-12T23:00:20.925Z,7.80
2023-02-12T23:02:50.427Z,8.17
2023-02-12T23:05:22.684Z,8.55
2023-02-12T23:07:52.270Z,8.57
2023-02-12T23:10:22.168Z,8.53
2023-02-12T23:12:51.907Z,8.48
2023-02-12T23:15:21.507Z,8.46
2023-02-12T23:17:51.083Z,8.15
2023-02-12T23:20:23.430Z,8.18
2023-02-12T23:22:53.047Z,8.03
2023-02-12T23:25:22.598Z,8.27
2023-02-12T23:27:52.176Z,8.54
2023-02-12T23:30:21.909Z,8.30
2023-02-12T23:32:51.491Z,8.56
2023-02-12T23:35:23.638Z,8.44
2023-02-12T23:37:53.307Z,8.32
2023-02-12T23:40:23.271Z,8.45
2023-02-12T23:42:52.810Z,8.67
2023-02-12T23:45:22.333Z,8.51
2023-02-12T23:47:51.963Z,8.31
2023-02-12T23:50:24.349Z,8.26
2023-02-12T23:52:54.018Z,8.38
2023-02-12T23:55:23.658Z,8.58
2023-02-12T23:57:53.248Z,8.59
